Terminal Aerodrome Forecast
Issued by NWS Paducah, KY

Home | Current Version | Previous Version | Text Only | Print | Product List | Glossary On
Versions: 1 2 3 4 5 6 7 8 9 10 11 12 13 14 15 16 17 18
102
FTUS43 KPAH 270520
TAFPAH
TAF
KPAH 270520Z 2706/2806 24010KT 6SM -SHRA SCT025 OVC050
      TEMPO 2706/2707 3SM -TSRA OVC015CB
     FM271000 27010KT 3SM -DZ OVC007
     FM271600 26010KT P6SM OVC015
     FM271900 18006KT P6SM BKN050=

USA.gov is the U.S. government's official web portal to all federal, state and local government web resources and services.